Time;durP1;ratioP1;P1;durP2;ratioP2;P2;SDS_P1;SDS_P2;PMS_P1;PMS_P2;Temp;Humidity;BMP_temperature;BMP_pressure;BME280_temperature;BME280_humidity;BME280_pressure;Samples;Min_cycle;Max_cycle;Signal;HPM_P1;HPM_P2
2021/01/29 00:00:42;;;;;;;4.07;1.52;;;;;;;8.83;48.71;101290.16;5007989;28;20144;-63
2021/01/29 00:03:13;;;;;;;3.45;1.40;;;;;;;8.84;48.52;101293.69;5003478;28;20121;-64
2021/01/29 00:05:43;;;;;;;4.65;1.50;;;;;;;8.85;48.41;101298.13;4993075;28;20515;-63
2021/01/29 00:08:12;;;;;;;2.05;1.20;;;;;;;8.85;48.90;101295.47;5006208;28;20065;-64
2021/01/29 00:10:39;;;;;;;3.92;1.50;;;;;;;8.85;48.76;101312.19;4993373;28;20057;-63
2021/01/29 00:13:10;;;;;;;4.18;1.30;;;;;;;8.89;49.06;101297.34;4992925;28;20463;-64
2021/01/29 00:15:38;;;;;;;3.47;1.50;;;;;;;8.88;49.17;101290.28;5005825;28;20042;-64
2021/01/29 00:18:05;;;;;;;3.15;1.10;;;;;;;8.87;49.36;101288.50;5011033;28;20060;-63
2021/01/29 00:20:32;;;;;;;3.72;1.40;;;;;;;8.86;49.38;101292.00;5011699;28;20129;-63
2021/01/29 00:22:59;;;;;;;2.85;1.27;;;;;;;8.84;49.51;101291.97;5011179;28;20064;-64
2021/01/29 00:25:31;;;;;;;3.78;1.30;;;;;;;8.82;49.58;101287.47;5009834;28;20061;-64
2021/01/29 00:27:58;;;;;;;7.28;1.50;;;;;;;8.80;49.72;101297.94;5010725;28;20042;-63
2021/01/29 00:30:25;;;;;;;3.33;1.30;;;;;;;8.83;49.74;101286.63;5009022;28;20121;-64
2021/01/29 00:32:53;;;;;;;9.00;4.53;;;;;;;8.85;49.69;101277.94;5005829;28;20069;-63
2021/01/29 00:35:22;;;;;;;5.80;2.53;;;;;;;8.86;49.59;101279.72;4992204;28;20455;-64
2021/01/29 00:37:49;;;;;;;5.85;3.83;;;;;;;8.85;49.40;101270.06;4992638;28;20113;-63
2021/01/29 00:40:17;;;;;;;11.43;9.15;;;;;;;8.82;49.63;101269.94;5001887;28;20129;-64
2021/01/29 00:42:46;;;;;;;6.85;4.65;;;;;;;8.77;49.59;101267.19;5011993;28;20060;-63
2021/01/29 00:45:16;;;;;;;3.88;2.85;;;;;;;8.75;49.95;101262.72;5003117;28;20035;-64
2021/01/29 00:47:43;;;;;;;3.70;2.38;;;;;;;8.72;49.86;101262.63;4992238;28;20462;-63
2021/01/29 00:50:10;;;;;;;4.30;2.58;;;;;;;8.71;49.90;101261.72;4995441;28;20041;-64
2021/01/29 00:52:38;;;;;;;8.82;2.90;;;;;;;8.67;50.20;101262.47;5003190;28;20038;-63
2021/01/29 00:55:06;;;;;;;7.38;3.00;;;;;;;8.61;49.99;101267.53;4991042;28;20027;-63
2021/01/29 00:57:34;;;;;;;10.85;4.43;;;;;;;8.55;50.43;101269.97;4990905;28;20050;-64
2021/01/29 01:00:03;;;;;;;7.35;3.45;;;;;;;8.55;50.50;101269.06;4994009;28;20078;-64
2021/01/29 01:02:31;;;;;;;6.13;1.92;;;;;;;8.49;50.59;101268.88;5002595;28;20061;-63
2021/01/29 01:04:58;;;;;;;5.85;1.85;;;;;;;8.47;50.80;101274.09;5008527;28;20065;-63
2021/01/29 01:07:25;;;;;;;6.53;2.65;;;;;;;8.45;51.07;101270.53;4996560;28;20054;-64
2021/01/29 01:09:52;;;;;;;3.95;2.08;;;;;;;8.42;51.27;101272.16;4992077;28;20034;-63
2021/01/29 01:12:19;;;;;;;3.83;1.70;;;;;;;8.40;51.54;101277.41;4991660;28;20089;-63
2021/01/29 01:14:46;;;;;;;2.42;1.73;;;;;;;8.36;51.71;101273.75;4991642;28;20061;-63
2021/01/29 01:17:14;;;;;;;4.93;2.25;;;;;;;8.36;52.00;101276.38;5003487;28;20030;-64
2021/01/29 01:19:42;;;;;;;2.85;1.33;;;;;;;8.37;52.12;101282.53;5009283;28;20068;-64
2021/01/29 01:22:09;;;;;;;2.92;1.70;;;;;;;8.31;52.52;101274.47;4998761;28;20042;-64
2021/01/29 01:24:40;;;;;;;4.63;1.63;;;;;;;8.25;52.86;101283.00;5002002;28;20038;-64
2021/01/29 01:27:08;;;;;;;2.90;2.13;;;;;;;8.22;53.16;101282.00;5010976;28;20487;-64
2021/01/29 01:29:36;;;;;;;2.78;1.20;;;;;;;8.17;53.70;101276.59;5010864;28;20038;-64
2021/01/29 01:32:03;;;;;;;3.80;1.60;;;;;;;8.15;53.94;101273.00;5011113;28;20065;-63
2021/01/29 01:34:32;;;;;;;5.03;1.60;;;;;;;8.12;54.21;101278.19;5008704;28;20089;-64
2021/01/29 01:36:59;;;;;;;3.97;1.50;;;;;;;8.07;54.81;101269.25;5008019;28;20121;-63
2021/01/29 01:39:27;;;;;;;3.78;1.60;;;;;;;8.02;54.95;101273.44;4983194;28;20392;-63
2021/01/29 01:41:54;;;;;;;3.22;1.17;;;;;;;8.01;54.86;101276.91;5010626;28;20040;-63
2021/01/29 01:44:29;;;;;;;1.95;1.00;;;;;;;8.06;54.77;101271.81;4996601;28;20085;-64
2021/01/29 01:46:57;;;;;;;;;;;;;;;8.04;54.69;101268.25;4991919;28;20054;-63
2021/01/29 01:49:26;;;;;;;2.58;1.50;;;;;;;8.07;54.67;101264.00;4999947;28;19926;-63
2021/01/29 01:52:00;;;;;;;3.83;1.35;;;;;;;8.07;54.89;101266.63;4991348;28;20062;-63
2021/01/29 01:54:38;;;;;;;4.63;1.70;;;;;;;8.00;55.57;101268.16;4990671;28;20456;-64
2021/01/29 01:57:06;;;;;;;2.80;1.60;;;;;;;7.90;55.86;101262.50;4991828;28;20121;-63
2021/01/29 01:59:39;;;;;;;3.47;1.27;;;;;;;7.88;56.12;101265.09;5005040;28;20107;-63
2021/01/29 02:02:10;;;;;;;2.83;1.23;;;;;;;7.83;56.42;101261.41;5010586;28;20038;-63
2021/01/29 02:04:43;;;;;;;3.50;1.38;;;;;;;7.74;56.89;101263.75;5007854;28;20038;-64
2021/01/29 02:07:23;;;;;;;4.22;1.90;;;;;;;7.70;56.98;101263.56;5006000;28;20039;-63
2021/01/29 02:09:51;;;;;;;4.55;1.23;;;;;;;7.67;57.33;101264.34;4990871;28;20131;-63
2021/01/29 02:12:19;;;;;;;5.68;1.35;;;;;;;7.65;57.19;101265.13;4991697;28;20448;-64
2021/01/29 02:14:47;;;;;;;3.63;1.30;;;;;;;7.60;57.49;101275.50;4980226;28;20118;-63
2021/01/29 02:17:25;;;;;;;4.93;1.50;;;;;;;7.61;58.09;101278.16;4991061;28;20117;-64
2021/01/29 02:20:22;;;;;;;2.58;1.20;;;;;;;7.58;58.31;101272.81;4992597;28;20129;-63
2021/01/29 02:23:29;;;;;;;4.20;1.60;;;;;;;7.55;58.61;101272.69;4995562;28;20062;-63
2021/01/29 02:26:36;;;;;;;3.53;1.30;;;;;;;7.51;58.92;101272.53;4994333;28;20059;-64
2021/01/29 02:29:33;;;;;;;3.30;1.30;;;;;;;7.48;59.41;101269.81;5026980;28;20045;-63
2021/01/29 02:32:44;;;;;;;2.97;1.40;;;;;;;7.56;59.39;101261.34;5029902;28;20041;-63
2021/01/29 02:35:40;;;;;;;2.25;1.27;;;;;;;7.66;59.20;101261.66;5008711;28;20113;-64
2021/01/29 02:38:40;;;;;;;5.28;1.55;;;;;;;7.74;59.14;101263.75;5024674;28;20037;-63
2021/01/29 02:41:17;;;;;;;3.25;1.25;;;;;;;7.78;58.85;101267.34;5029389;28;20126;-63
2021/01/29 02:44:11;;;;;;;4.13;1.75;;;;;;;7.86;59.04;101261.53;5019504;28;20129;-63
2021/01/29 02:46:50;;;;;;;4.28;1.42;;;;;;;7.92;59.21;101264.38;4978701;28;20500;-63
2021/01/29 02:49:28;;;;;;;3.45;1.23;;;;;;;7.96;59.13;101276.75;4992366;28;20038;-64
2021/01/29 02:52:02;;;;;;;2.90;1.45;;;;;;;8.00;58.94;101283.94;5004889;28;20038;-63
2021/01/29 02:54:39;;;;;;;3.72;1.58;;;;;;;8.02;59.30;101279.59;5002238;28;20498;-63
2021/01/29 02:57:17;;;;;;;3.17;1.50;;;;;;;8.02;59.25;101279.59;4994511;28;20030;-63
2021/01/29 02:59:55;;;;;;;3.95;1.30;;;;;;;8.00;59.38;101278.66;4999556;28;20719;-63
2021/01/29 03:02:26;;;;;;;2.30;1.55;;;;;;;7.98;59.46;101285.59;5013690;28;20069;-63
2021/01/29 03:05:01;;;;;;;2.58;1.50;;;;;;;7.94;59.76;101288.09;5010880;28;20173;-63
2021/01/29 03:07:35;;;;;;;3.63;1.40;;;;;;;7.85;60.18;101283.38;4999682;28;20030;-63
2021/01/29 03:10:09;;;;;;;4.65;2.38;;;;;;;7.82;60.43;101287.63;5012136;28;20117;-63
2021/01/29 03:12:44;;;;;;;3.95;1.63;;;;;;;7.77;60.37;101287.47;5032588;28;20068;-63
2021/01/29 03:15:14;;;;;;;;;;;;;;;7.70;60.37;101282.84;5033675;28;20125;-63
2021/01/29 03:17:46;;;;;;;2.88;1.67;;;;;;;7.66;60.25;101272.19;5031504;28;19920;-63
2021/01/29 03:20:27;;;;;;;4.57;1.83;;;;;;;7.63;60.98;101270.31;5033072;28;20073;-64
2021/01/29 03:23:00;;;;;;;4.20;1.48;;;;;;;7.58;60.58;101272.81;5031658;28;20057;-63
2021/01/29 03:25:32;;;;;;;5.07;1.63;;;;;;;7.55;61.03;101271.78;5032267;28;20121;-63
2021/01/29 03:28:06;;;;;;;2.10;1.58;;;;;;;7.55;61.28;101275.31;5027867;28;20491;-63
2021/01/29 03:30:38;;;;;;;4.32;2.00;;;;;;;7.52;61.22;101277.84;5025218;28;20122;-64
2021/01/29 03:33:11;;;;;;;2.45;1.65;;;;;;;7.50;61.12;101278.59;5030251;28;20060;-65
2021/01/29 03:35:41;;;;;;;4.75;1.75;;;;;;;7.44;61.71;101278.38;5032939;28;20574;-64
2021/01/29 03:38:13;;;;;;;5.63;1.50;;;;;;;7.40;61.80;101277.41;5031103;28;20134;-63
2021/01/29 03:40:42;;;;;;;3.17;1.35;;;;;;;7.39;61.85;101282.59;5018913;28;20188;-64
2021/01/29 03:43:22;;;;;;;4.32;1.65;;;;;;;7.37;61.99;101292.13;5022936;28;20053;-64
2021/01/29 03:46:01;;;;;;;5.18;2.10;;;;;;;7.35;61.98;101297.31;5020505;28;20073;-64
2021/01/29 03:48:35;;;;;;;2.92;1.45;;;;;;;7.34;62.15;101305.16;5012780;28;20121;-63
2021/01/29 03:51:08;;;;;;;5.50;1.40;;;;;;;7.33;62.02;101309.53;5023481;28;20057;-63
2021/01/29 03:53:45;;;;;;;4.00;1.92;;;;;;;7.31;62.24;101298.06;5017035;28;20272;-63
2021/01/29 03:56:26;;;;;;;3.75;1.70;;;;;;;7.30;62.37;101308.50;5020279;28;20479;-65
2021/01/29 03:59:02;;;;;;;3.85;1.58;;;;;;;7.25;62.54;101320.56;5016186;28;20061;-63
2021/01/29 04:01:40;;;;;;;6.47;2.45;;;;;;;7.20;63.33;101320.41;5011594;28;20046;-63
2021/01/29 04:04:15;;;;;;;5.07;2.30;;;;;;;7.24;63.33;101316.13;5027054;28;20124;-63
2021/01/29 04:06:52;;;;;;;3.75;1.65;;;;;;;7.32;63.15;101325.22;5029059;28;20128;-63
2021/01/29 04:09:29;;;;;;;7.47;2.03;;;;;;;7.37;62.94;101332.41;5016831;28;20061;-64
2021/01/29 04:12:01;;;;;;;5.45;1.90;;;;;;;7.38;63.02;101335.94;5012653;28;20140;-63
2021/01/29 04:14:38;;;;;;;3.28;1.65;;;;;;;7.35;62.96;101331.47;5020572;28;20046;-64
2021/01/29 04:17:12;;;;;;;3.45;1.80;;;;;;;7.32;63.18;101325.22;5012586;28;20038;-63
2021/01/29 04:19:43;;;;;;;2.67;1.40;;;;;;;7.31;63.37;101326.94;5018595;28;20383;-63
2021/01/29 04:22:15;;;;;;;4.38;1.63;;;;;;;7.28;63.54;101325.94;5031869;28;20387;-63
2021/01/29 04:24:48;;;;;;;3.85;1.45;;;;;;;7.28;63.52;101325.94;5010501;28;20124;-63
2021/01/29 04:27:19;;;;;;;5.20;2.22;;;;;;;7.28;63.54;101329.47;5010594;28;20029;-63
2021/01/29 04:29:52;;;;;;;4.85;1.65;;;;;;;7.29;63.49;101332.97;4982494;28;20125;-63
2021/01/29 04:32:22;;;;;;;2.90;1.58;;;;;;;7.31;63.58;101326.94;4992413;28;20045;-64
2021/01/29 04:34:53;;;;;;;6.45;2.03;;;;;;;7.30;63.56;101327.78;5011847;28;20068;-63
2021/01/29 04:37:26;;;;;;;3.20;1.35;;;;;;;7.34;63.55;101339.31;5003038;28;20139;-63
2021/01/29 04:39:58;;;;;;;12.75;7.50;;;;;;;7.34;63.49;101339.31;5002027;28;20034;-64
2021/01/29 04:42:36;;;;;;;4.32;2.13;;;;;;;7.36;63.63;101343.75;4992247;28;20117;-63
2021/01/29 04:45:25;;;;;;;5.07;1.67;;;;;;;7.43;63.43;101342.25;4992487;28;20061;-63
2021/01/29 04:47:59;;;;;;;5.22;1.50;;;;;;;7.47;63.63;101360.84;4993028;28;20046;-63
2021/01/29 04:50:35;;;;;;;10.70;5.90;;;;;;;7.45;63.41;101362.50;4991924;28;20105;-64
2021/01/29 04:53:37;;;;;;;7.53;3.20;;;;;;;7.45;63.17;101362.50;4999586;28;20052;-63
2021/01/29 04:56:22;;;;;;;4.20;2.15;;;;;;;7.47;63.02;101362.56;4959607;28;20125;-63
2021/01/29 04:59:21;;;;;;;3.72;1.67;;;;;;;7.44;62.89;101360.72;4996238;28;20438;-64
2021/01/29 05:02:20;;;;;;;4.43;2.00;;;;;;;7.43;62.66;101353.66;5001227;28;20133;-63
2021/01/29 05:05:25;;;;;;;4.82;2.20;;;;;;;7.34;62.78;101355.97;5011375;28;20033;-64
2021/01/29 05:08:28;;;;;;;5.20;2.10;;;;;;;7.24;62.91;101356.41;4994518;28;20061;-64
2021/01/29 05:11:33;;;;;;;2.63;1.40;;;;;;;7.17;63.03;101359.66;5010012;28;20088;-63
2021/01/29 05:14:46;;;;;;;4.28;1.60;;;;;;;7.12;63.13;101367.34;4991232;28;20546;-63
2021/01/29 05:17:49;;;;;;;3.42;1.20;;;;;;;7.06;62.98;101364.50;4968526;28;20042;-65
2021/01/29 05:20:33;;;;;;;2.38;1.30;;;;;;;6.99;63.10;101366.81;4982502;28;20042;-64
2021/01/29 05:23:09;;;;;;;2.88;1.60;;;;;;;6.93;63.42;101372.72;4995110;28;20097;-63
2021/01/29 05:26:21;;;;;;;3.85;1.20;;;;;;;6.98;63.21;101370.25;5009925;28;20125;-64
2021/01/29 05:29:15;;;;;;;3.58;2.17;;;;;;;7.03;62.84;101366.97;5008924;28;20128;-64
2021/01/29 05:32:20;;;;;;;2.97;1.50;;;;;;;7.08;62.86;101375.97;5010834;28;20049;-63
2021/01/29 05:35:12;;;;;;;11.48;3.80;;;;;;;7.08;62.68;101375.06;4979419;28;20038;-63
2021/01/29 05:38:10;;;;;;;20.50;11.45;;;;;;;7.08;62.66;101378.59;4992346;28;20042;-64
2021/01/29 05:40:58;;;;;;;28.75;18.45;;;;;;;7.02;62.83;101383.56;4991205;28;20520;-63
2021/01/29 05:43:57;;;;;;;29.15;19.42;;;;;;;6.97;62.91;101371.09;5003711;28;20129;-64
2021/01/29 05:46:29;;;;;;;17.67;12.05;;;;;;;6.94;63.09;101368.38;5010462;28;20445;-63
2021/01/29 05:49:14;;;;;;;16.10;9.63;;;;;;;6.93;63.10;101379.69;4993240;28;20049;-63
2021/01/29 05:52:16;;;;;;;10.60;5.20;;;;;;;6.95;63.07;101373.69;4991712;28;20426;-63
2021/01/29 05:55:02;;;;;;;5.55;3.20;;;;;;;7.06;62.75;101367.13;4949522;28;20034;-63
2021/01/29 05:58:02;;;;;;;4.03;2.05;;;;;;;7.16;62.63;101377.13;4978622;28;20038;-64
2021/01/29 06:00:50;;;;;;;5.63;2.78;;;;;;;7.18;62.78;101385.06;4986806;28;20043;-63
2021/01/29 06:03:46;;;;;;;8.20;4.10;;;;;;;7.15;63.13;101387.59;5001529;28;20050;-64
2021/01/29 06:06:45;;;;;;;7.88;5.07;;;;;;;7.04;63.64;101381.91;4989277;28;20046;-66
2021/01/29 06:09:26;;;;;;;10.98;4.60;;;;;;;7.06;63.81;101389.84;4996708;28;20030;-63
2021/01/29 06:12:05;;;;;;;6.10;2.30;;;;;;;7.11;63.79;101393.53;5029511;28;20495;-63
2021/01/29 06:15:10;;;;;;;4.97;2.47;;;;;;;7.13;63.61;101370.88;5030028;28;20128;-63
2021/01/29 06:18:04;;;;;;;;;;;;;;;7.22;63.72;101379.09;5019368;28;20129;-63
2021/01/29 06:21:03;;;;;;;2.15;1.40;;;;;;;7.46;63.65;101366.03;5011025;28;19995;-64
2021/01/29 06:24:08;;;;;;;2.42;1.40;;;;;;;7.64;63.51;101374.59;5013454;28;20061;-63
2021/01/29 06:26:53;;;;;;;;;;;;;;;7.66;63.37;101375.53;4980506;28;20064;-63
2021/01/29 06:29:27;;;;;;;5.30;1.75;;;;;;;7.70;63.14;101369.56;5022659;28;19932;-64
2021/01/29 06:32:33;;;;;;;2.25;1.42;;;;;;;7.71;62.93;101366.09;5022020;28;20088;-63
2021/01/29 06:35:13;;;;;;;;;;;;;;;7.65;62.97;101365.88;5015648;28;20278;-63
2021/01/29 06:37:56;;;;;;;6.25;2.05;;;;;;;7.65;62.92;101364.97;5015991;28;20016;-64
2021/01/29 06:40:30;;;;;;;59.72;19.60;;;;;;;7.58;63.14;101369.09;5009677;28;20420;-63
2021/01/29 07:10:19;;;;;;;7.50;2.72;;;;;;;8.19;65.26;101348.56;5087255;27;20133;-63
2021/01/29 07:13:11;;;;;;;5.13;2.50;;;;;;;8.37;65.04;101337.78;5086650;28;20052;-63
2021/01/29 07:15:49;;;;;;;8.90;3.45;;;;;;;8.55;64.60;101342.75;5087295;28;20051;-63
2021/01/29 07:18:48;;;;;;;11.65;5.28;;;;;;;8.78;64.39;101347.94;5085554;28;20055;-63
2021/01/29 07:21:36;;;;;;;9.10;4.65;;;;;;;9.01;64.28;101348.66;5086627;28;20877;-64
2021/01/29 07:24:17;;;;;;;13.25;5.43;;;;;;;9.18;64.09;101354.47;5086681;28;20699;-64
2021/01/29 07:26:59;;;;;;;13.30;7.30;;;;;;;9.31;64.33;101355.72;5087082;28;20500;-64
2021/01/29 07:29:40;;;;;;;17.58;8.48;;;;;;;9.40;63.93;101355.97;5086611;28;20043;-63
2021/01/29 07:32:16;;;;;;;16.42;8.30;;;;;;;9.39;63.83;101357.72;5086967;28;20051;-64
2021/01/29 07:34:50;;;;;;;19.98;9.88;;;;;;;9.38;63.74;101361.22;5086369;28;20413;-63
2021/01/29 07:37:55;;;;;;;19.50;10.63;;;;;;;9.43;63.72;101358.72;5086454;28;20492;-63
2021/01/29 07:40:37;;;;;;;17.77;8.67;;;;;;;9.56;63.54;101364.41;5086582;28;20091;-63
2021/01/29 07:43:35;;;;;;;15.88;9.48;;;;;;;9.90;63.59;101371.53;5086768;28;20043;-63
2021/01/29 07:46:20;;;;;;;18.10;8.93;;;;;;;10.14;63.36;101365.13;5068086;28;20498;-64
2021/01/29 07:49:14;;;;;;;14.48;8.60;;;;;;;10.25;62.84;101364.59;5086402;28;20055;-63
2021/01/29 07:51:49;;;;;;;15.00;7.10;;;;;;;10.45;62.98;101369.47;5086041;28;20044;-63
2021/01/29 07:54:40;;;;;;;21.27;13.30;;;;;;;10.74;63.09;101371.13;5085684;28;20040;-63
2021/01/29 07:57:19;;;;;;;43.63;34.45;;;;;;;11.13;62.54;101366.78;5086354;28;20067;-64
2021/01/29 08:00:15;;;;;;;45.28;36.10;;;;;;;11.39;62.26;101369.13;5085866;28;20051;-63
2021/01/29 08:03:08;;;;;;;21.23;14.80;;;;;;;11.82;61.11;101363.91;5086002;28;20040;-63
2021/01/29 08:05:43;;;;;;;55.10;43.60;;;;;;;12.30;61.12;101371.88;5086470;28;20044;-63
2021/01/29 08:08:17;;;;;;;24.55;20.05;;;;;;;12.69;59.93;101371.69;5085498;28;20054;-64
2021/01/29 08:10:48;;;;;;;19.07;14.67;;;;;;;13.15;59.53;101367.16;5072417;28;20044;-64
2021/01/29 08:13:25;;;;;;;19.42;14.57;;;;;;;13.51;57.89;101367.69;5071578;28;20044;-63
2021/01/29 08:17:08;;;;;;;9.88;4.30;;;;;;;13.71;54.98;101373.25;5109758;27;20196;-64
2021/01/29 08:19:47;;;;;;;4.95;2.53;;;;;;;13.94;55.62;101370.84;5080777;28;20059;-63
2021/01/29 08:22:29;;;;;;;4.07;1.88;;;;;;;14.18;54.80;101365.81;5086913;27;20054;-64
2021/01/29 08:25:17;;;;;;;7.18;2.28;;;;;;;14.33;54.13;101381.00;5096754;27;20487;-64
2021/01/29 08:28:05;;;;;;;4.85;2.15;;;;;;;14.50;53.03;101386.53;5090372;27;20036;-64
2021/01/29 08:30:48;;;;;;;7.10;3.30;;;;;;;14.69;52.94;101376.09;5096119;28;20048;-64
2021/01/29 08:33:59;;;;;;;11.23;3.40;;;;;;;14.89;52.35;101373.59;5096352;28;20088;-63
2021/01/29 08:36:39;;;;;;;8.63;3.40;;;;;;;14.98;52.63;101383.41;5069312;27;20134;-64
2021/01/29 08:39:16;;;;;;;29.77;3.13;;;;;;;15.02;52.42;101382.56;5091619;28;20140;-64
2021/01/29 08:41:54;;;;;;;9.75;2.15;;;;;;;15.27;51.60;101373.88;5094612;28;20122;-64
2021/01/29 08:44:34;;;;;;;7.35;2.45;;;;;;;15.38;51.46;101379.25;5084518;27;20138;-64
2021/01/29 08:47:22;;;;;;;5.72;2.80;;;;;;;15.60;50.85;101383.84;5084396;28;20119;-64
2021/01/29 08:50:24;;;;;;;6.65;1.83;;;;;;;16.02;50.20;101385.78;5081131;27;20503;-64
2021/01/29 08:53:15;;;;;;;7.15;2.55;;;;;;;16.37;49.46;101390.31;5081672;27;20127;-64
2021/01/29 08:56:01;;;;;;;9.43;3.10;;;;;;;16.37;49.61;101383.22;5081887;27;20048;-64
2021/01/29 08:58:37;;;;;;;8.73;3.08;;;;;;;16.46;50.09;101377.91;5095602;27;20574;-64
2021/01/29 09:01:11;;;;;;;9.13;2.88;;;;;;;16.49;49.89;101369.91;5095535;27;20453;-61
2021/01/29 09:03:45;;;;;;;6.65;2.25;;;;;;;16.44;50.26;101373.44;5096032;28;20043;-64
2021/01/29 09:06:17;;;;;;;7.88;2.15;;;;;;;16.35;49.74;101377.88;5083162;28;20068;-64
2021/01/29 09:08:46;;;;;;;10.57;2.72;;;;;;;16.30;49.35;101368.97;5081786;28;20127;-64
2021/01/29 09:11:20;;;;;;;7.35;2.75;;;;;;;16.26;48.84;101368.97;5095728;28;20036;-64
2021/01/29 09:13:54;;;;;;;6.47;2.17;;;;;;;16.15;48.91;101366.28;5086752;28;20051;-64
2021/01/29 09:16:26;;;;;;;8.18;2.22;;;;;;;16.25;48.29;101370.75;5081145;28;20052;-64
2021/01/29 09:19:01;;;;;;;7.63;2.85;;;;;;;16.20;48.34;101361.88;5095396;28;20059;-64
2021/01/29 09:21:37;;;;;;;6.10;1.75;;;;;;;15.97;48.65;101355.59;5093687;28;21687;-64
2021/01/29 09:24:14;;;;;;;5.45;1.98;;;;;;;15.73;48.62;101361.72;5085789;27;20044;-64
2021/01/29 09:26:49;;;;;;;7.97;4.18;;;;;;;15.58;49.22;101368.72;5086146;28;20055;-64
2021/01/29 09:29:25;;;;;;;9.57;4.38;;;;;;;15.53;49.61;101379.38;5070343;28;20443;-63
2021/01/29 09:31:58;;;;;;;9.80;3.78;;;;;;;15.59;49.52;101376.72;5081809;28;20055;-63
2021/01/29 09:34:34;;;;;;;7.07;2.45;;;;;;;15.93;49.35;101365.34;5073604;28;20048;-64
2021/01/29 09:37:07;;;;;;;4.35;2.20;;;;;;;16.48;49.51;101364.56;5079688;28;20051;-64
2021/01/29 09:39:39;;;;;;;4.65;1.77;;;;;;;16.91;48.30;101365.50;5081222;28;20044;-64
2021/01/29 09:42:11;;;;;;;6.40;2.47;;;;;;;16.97;47.53;101353.06;5081547;28;20070;-64
2021/01/29 09:44:44;;;;;;;8.60;2.33;;;;;;;17.08;47.55;101353.91;5081454;28;20059;-64
2021/01/29 09:47:16;;;;;;;6.20;2.53;;;;;;;17.22;46.37;101358.34;5069003;28;20855;-62
2021/01/29 09:49:45;;;;;;;9.57;5.18;;;;;;;17.07;46.55;101362.81;5081101;28;20040;-64
2021/01/29 09:52:23;;;;;;;9.15;2.58;;;;;;;16.90;46.30;101350.41;5073182;28;20165;-64
2021/01/29 09:55:07;;;;;;;8.60;2.70;;;;;;;16.72;46.25;101351.31;5080746;28;20071;-64
2021/01/29 09:57:39;;;;;;;7.83;3.17;;;;;;;16.59;45.90;101350.38;5072099;28;21668;-63
2021/01/29 10:00:14;;;;;;;6.38;2.45;;;;;;;16.41;46.44;101353.00;5077426;28;20094;-64
2021/01/29 10:02:53;;;;;;;4.78;1.95;;;;;;;16.13;46.77;101351.19;5081331;28;20071;-64
2021/01/29 10:05:32;;;;;;;5.82;1.75;;;;;;;15.91;47.24;101350.25;5078662;28;20036;-64
2021/01/29 10:08:11;;;;;;;6.22;2.75;;;;;;;15.95;48.30;101349.34;5081608;28;20058;-64
2021/01/29 10:11:00;;;;;;;6.80;1.40;;;;;;;16.37;48.15;101348.56;5075881;28;20040;-63
2021/01/29 10:13:45;;;;;;;7.22;1.27;;;;;;;16.73;47.57;101340.63;5079122;28;20043;-64
2021/01/29 10:16:20;;;;;;;3.75;1.50;;;;;;;16.87;47.64;101331.75;5079343;28;20098;-64
2021/01/29 10:18:58;;;;;;;5.90;1.50;;;;;;;16.62;47.43;101336.19;5074339;28;20393;-63
2021/01/29 10:21:42;;;;;;;5.13;1.73;;;;;;;16.32;47.08;101321.91;5079612;28;20044;-64
2021/01/29 10:24:16;;;;;;;6.88;2.20;;;;;;;16.30;47.24;101320.13;5069302;28;20058;-64
2021/01/29 10:26:50;;;;;;;8.52;2.88;;;;;;;16.66;47.36;101325.53;5066680;28;20037;-63
2021/01/29 10:29:22;;;;;;;13.63;6.82;;;;;;;17.17;47.00;101330.78;5080464;28;20050;-64
2021/01/29 10:32:04;;;;;;;12.07;5.70;;;;;;;17.31;46.12;101324.53;5066521;28;20068;-64
2021/01/29 10:34:40;;;;;;;12.27;3.30;;;;;;;17.23;45.17;101323.66;5080177;28;21038;-64
2021/01/29 10:37:13;;;;;;;7.18;3.10;;;;;;;17.31;44.59;101311.19;5081048;28;20050;-64
2021/01/29 10:40:08;;;;;;;8.73;3.65;;;;;;;17.75;44.45;101303.03;5079833;28;20039;-64
2021/01/29 10:42:45;;;;;;;13.88;6.53;;;;;;;18.00;44.12;101295.75;5079960;28;20059;-64
2021/01/29 10:45:17;;;;;;;7.75;3.50;;;;;;;18.32;43.17;101292.84;5066646;28;20634;-65
2021/01/29 10:47:54;;;;;;;6.85;2.80;;;;;;;18.46;42.80;101288.28;5078472;28;20055;-64
2021/01/29 10:50:26;;;;;;;5.82;2.58;;;;;;;18.65;41.95;101284.56;5078338;28;20040;-64
2021/01/29 10:53:09;;;;;;;26.42;10.93;;;;;;;18.62;41.79;101278.38;5077553;28;20774;-65
2021/01/29 10:55:39;;;;;;;17.58;8.18;;;;;;;18.43;42.20;101279.41;5077960;28;20064;-65
2021/01/29 10:58:29;;;;;;;11.32;5.55;;;;;;;18.09;42.74;101276.09;5078609;28;20043;-65
2021/01/29 11:00:59;;;;;;;8.55;3.53;;;;;;;17.77;42.88;101284.31;5079648;28;20070;-65
2021/01/29 11:04:03;;;;;;;9.77;3.17;;;;;;;17.53;43.08;101287.94;5079884;28;20040;-65
2021/01/29 11:06:39;;;;;;;6.40;2.60;;;;;;;17.69;43.67;101287.03;5068143;28;21877;-64
2021/01/29 11:09:15;;;;;;;7.78;2.72;;;;;;;17.85;43.37;101279.84;5070070;28;20038;-64
2021/01/29 11:11:47;;;;;;;8.77;2.72;;;;;;;17.94;43.35;101277.09;5078398;28;21010;-65
2021/01/29 11:14:28;;;;;;;8.13;2.38;;;;;;;17.96;43.55;101269.97;5074719;28;20040;-65
2021/01/29 11:17:08;;;;;;;8.07;2.53;;;;;;;17.95;43.53;101268.19;5070726;28;20052;-64
2021/01/29 11:19:39;;;;;;;7.90;2.38;;;;;;;18.05;43.51;101261.84;5077278;28;20045;-64
2021/01/29 11:22:18;;;;;;;6.47;1.67;;;;;;;18.14;43.43;101251.13;5074945;28;20434;-64
2021/01/29 11:25:03;;;;;;;5.00;1.50;;;;;;;17.95;42.90;101245.91;5077847;28;20167;-65
2021/01/29 11:27:35;;;;;;;6.65;2.72;;;;;;;17.78;43.42;101235.34;5070349;28;20751;-64
2021/01/29 11:30:12;;;;;;;8.40;4.13;;;;;;;17.76;43.54;101231.78;5067217;28;20048;-65
2021/01/29 11:32:42;;;;;;;6.47;2.92;;;;;;;17.71;43.13;101228.28;5068165;28;20036;-65
2021/01/29 11:35:30;;;;;;;5.00;2.17;;;;;;;17.61;43.01;101218.53;5075631;28;20036;-64
2021/01/29 11:38:12;;;;;;;5.65;1.90;;;;;;;17.44;43.09;101216.81;5078784;28;20834;-65
2021/01/29 11:40:49;;;;;;;8.98;3.10;;;;;;;17.24;43.89;101223.16;5076917;28;20040;-64
2021/01/29 11:43:30;;;;;;;10.63;3.85;;;;;;;17.32;43.36;101210.66;5078347;28;20052;-64
2021/01/29 11:46:09;;;;;;;10.73;3.97;;;;;;;17.54;43.23;101206.97;5077159;28;20677;-64
2021/01/29 11:48:44;;;;;;;9.55;3.33;;;;;;;17.71;42.10;101201.56;5077181;28;20409;-64
2021/01/29 11:51:21;;;;;;;7.10;2.60;;;;;;;17.81;41.58;101208.59;5073677;28;20040;-65
2021/01/29 11:53:58;;;;;;;5.53;2.20;;;;;;;17.87;41.76;101203.22;5069812;28;20045;-65
2021/01/29 11:56:31;;;;;;;5.47;2.47;;;;;;;17.95;41.60;101211.19;5076620;28;21612;-65
2021/01/29 11:59:04;;;;;;;7.10;2.28;;;;;;;18.00;41.36;101210.25;5072748;28;20044;-65
2021/01/29 12:01:36;;;;;;;5.80;1.88;;;;;;;18.03;41.39;101218.25;5076191;28;20051;-65
2021/01/29 12:04:13;;;;;;;5.90;1.60;;;;;;;18.03;41.15;101206.69;5078634;28;20040;-65
2021/01/29 12:06:44;;;;;;;10.50;2.50;;;;;;;18.06;41.50;101195.94;5066688;28;20045;-64
2021/01/29 12:09:16;;;;;;;5.05;2.20;;;;;;;18.09;41.68;101186.13;5070812;28;20120;-65
2021/01/29 12:11:50;;;;;;;10.30;3.05;;;;;;;17.93;42.09;101193.38;5070848;28;20036;-64
2021/01/29 12:14:27;;;;;;;5.10;2.40;;;;;;;17.97;42.15;101196.03;5085554;28;20044;-64
2021/01/29 12:16:57;;;;;;;6.65;2.22;;;;;;;18.04;42.06;101192.44;5078375;28;20040;-64
2021/01/29 12:19:33;;;;;;;5.57;2.53;;;;;;;18.12;41.94;101194.13;5071132;28;20036;-65
2021/01/29 12:22:24;;;;;;;13.40;5.45;;;;;;;18.04;42.44;101187.97;5070995;28;20489;-64
2021/01/29 12:25:02;;;;;;;15.73;3.95;;;;;;;17.91;41.87;101180.94;5068461;28;20107;-65
2021/01/29 12:27:43;;;;;;;6.80;2.67;;;;;;;17.70;42.32;101181.09;5074680;28;20055;-64
2021/01/29 13:09:42;;;;;;;15.52;8.82;;;;;;;18.28;42.63;101182.41;5108650;27;20409;-67
2021/01/29 13:25:55;;;;;;;45.92;6.32;;;;;;;17.17;52.56;101208.06;5128214;27;20337;-46
2021/01/29 13:29:01;;;;;;;20.50;6.25;;;;;;;18.06;49.15;101206.63;5151254;27;20127;-51
2021/01/29 13:31:33;;;;;;;23.00;8.02;;;;;;;17.30;53.23;101207.09;5125639;28;20502;-67
2021/01/29 13:34:04;;;;;;;18.05;6.82;;;;;;;17.24;51.23;101209.81;5122032;28;20089;-65
2021/01/29 13:41:12;;;;;;;14.57;5.32;;;;;;;17.39;59.55;101215.94;5077951;27;20569;-59
2021/01/29 13:43:41;;;;;;;21.15;5.45;;;;;;;17.36;60.11;101215.97;5027093;28;20414;-54
2021/01/29 13:46:23;;;;;;;30.10;6.18;;;;;;;17.74;59.86;101210.44;5027858;28;20054;-59
2021/01/29 13:49:10;;;;;;;18.40;5.55;;;;;;;19.31;55.16;101206.25;5040878;28;72983;-62